Time;durP1;ratioP1;P1;durP2;ratioP2;P2;SDS_P1;SDS_P2;PMS_P1;PMS_P2;Temp;Humidity;BMP_temperature;BMP_pressure;BME280_temperature;BME280_humidity;BME280_pressure;Samples;Min_cycle;Max_cycle;Signal;HPM_P1;HPM_P2
2021/12/01 00:00:19;;;;;;;6.22;0.70;;;;;;;;;;4996672;28;20021;-75
2021/12/01 00:02:44;;;;;;;4.32;0.40;;;;;;;;;;5012630;28;20017;-74
2021/12/01 00:05:10;;;;;;;6.82;0.47;;;;;;;;;;5007404;28;20018;-74
2021/12/01 00:07:36;;;;;;;6.15;0.43;;;;;;;;;;5012204;28;20029;-75
2021/12/01 00:10:03;;;;;;;5.25;0.70;;;;;;;;;;5012602;28;20017;-75
2021/12/01 00:12:28;;;;;;;4.90;0.80;;;;;;;;;;5013164;28;20060;-74
2021/12/01 00:14:53;;;;;;;5.55;0.68;;;;;;;;;;5011505;28;20018;-75
2021/12/01 00:17:19;;;;;;;4.82;1.00;;;;;;;;;;5016342;28;20113;-74
2021/12/01 00:19:44;;;;;;;4.10;0.60;;;;;;;;;;4996815;28;20394;-75
2021/12/01 00:22:09;;;;;;;4.95;0.70;;;;;;;;;;4995198;28;20108;-74
2021/12/01 00:24:35;;;;;;;1.95;0.80;;;;;;;;;;5009673;28;20030;-75
2021/12/01 00:27:00;;;;;;;2.78;0.52;;;;;;;;;;4979449;28;20041;-75
2021/12/01 00:29:25;;;;;;;1.80;0.60;;;;;;;;;;5010116;28;20026;-75
2021/12/01 00:31:51;;;;;;;4.80;0.90;;;;;;;;;;5013641;28;20014;-77
2021/12/01 00:34:16;;;;;;;4.55;1.20;;;;;;;;;;5013829;28;20022;-77
2021/12/01 00:36:41;;;;;;;4.68;1.63;;;;;;;;;;4990933;28;20026;-76
2021/12/01 00:39:07;;;;;;;4.25;2.25;;;;;;;;;;5008075;28;20029;-76
2021/12/01 00:41:33;;;;;;;7.15;2.50;;;;;;;;;;5009043;28;20049;-76
2021/12/01 00:44:00;;;;;;;6.63;2.92;;;;;;;;;;4996499;28;20030;-75
2021/12/01 00:46:37;;;;;;;6.32;3.42;;;;;;;;;;5013134;28;20022;-75
2021/12/01 00:49:03;;;;;;;7.68;4.13;;;;;;;;;;4990356;28;20033;-76
2021/12/01 00:51:28;;;;;;;8.38;4.75;;;;;;;;;;5012531;28;20026;-75
2021/12/01 00:53:53;;;;;;;6.28;3.80;;;;;;;;;;5010321;28;20452;-76
2021/12/01 00:56:18;;;;;;;6.28;3.65;;;;;;;;;;5002672;28;20025;-75
2021/12/01 00:58:44;;;;;;;8.13;4.07;;;;;;;;;;4982004;28;20069;-74
2021/12/01 01:01:09;;;;;;;5.40;3.60;;;;;;;;;;5002445;28;20509;-74
2021/12/01 01:03:35;;;;;;;5.97;4.13;;;;;;;;;;5008480;28;20041;-75
2021/12/01 01:06:00;;;;;;;7.32;4.32;;;;;;;;;;5007654;28;20473;-74
2021/12/01 01:08:25;;;;;;;7.32;4.63;;;;;;;;;;4994070;28;20080;-76
2021/12/01 01:16:25;;;;;;;6.22;4.70;;;;;;;;;;5008627;28;20045;-76
2021/12/01 01:18:50;;;;;;;6.50;4.70;;;;;;;;;;5020459;28;20037;-75
2021/12/01 01:21:15;;;;;;;6.70;4.82;;;;;;;;;;4999442;28;20030;-75
2021/12/01 01:23:41;;;;;;;7.03;5.30;;;;;;;;;;4992231;28;20511;-75
2021/12/01 01:26:09;;;;;;;6.50;4.90;;;;;;;;;;5009223;28;20030;-75
2021/12/01 01:28:36;;;;;;;7.00;5.15;;;;;;;;;;5003037;28;20034;-75
2021/12/01 01:31:02;;;;;;;8.30;5.10;;;;;;;;;;5009426;28;20081;-75
2021/12/01 01:33:27;;;;;;;7.10;5.25;;;;;;;;;;5019078;28;20018;-75
2021/12/01 01:35:52;;;;;;;8.77;5.38;;;;;;;;;;5001515;28;20421;-75
2021/12/01 01:38:18;;;;;;;7.10;5.45;;;;;;;;;;5011327;28;20053;-75
2021/12/01 01:40:43;;;;;;;10.20;5.90;;;;;;;;;;5010465;28;20030;-75
2021/12/01 01:43:08;;;;;;;6.38;5.03;;;;;;;;;;5012927;28;20037;-74
2021/12/01 01:45:34;;;;;;;12.35;6.93;;;;;;;;;;5001682;28;20022;-75
2021/12/01 01:48:03;;;;;;;10.73;6.45;;;;;;;;;;5018756;28;20021;-75
2021/12/01 01:50:38;;;;;;;8.60;5.43;;;;;;;;;;5009449;28;20038;-75
2021/12/01 01:53:06;;;;;;;9.20;4.93;;;;;;;;;;4978372;28;20092;-76
2021/12/01 01:55:32;;;;;;;3.75;2.90;;;;;;;;;;5004628;28;20026;-76
2021/12/01 01:57:58;;;;;;;4.78;3.00;;;;;;;;;;5007600;28;20018;-76
2021/12/01 02:00:23;;;;;;;4.45;3.17;;;;;;;;;;5008574;28;20025;-77
2021/12/01 02:02:49;;;;;;;5.75;3.72;;;;;;;;;;5002760;28;20033;-76
2021/12/01 02:05:15;;;;;;;4.22;2.80;;;;;;;;;;5004048;28;20041;-75
2021/12/01 02:07:42;;;;;;;3.60;2.42;;;;;;;;;;4986290;28;20030;-76
2021/12/01 02:10:08;;;;;;;4.25;2.88;;;;;;;;;;5009268;28;20037;-76
2021/12/01 02:12:33;;;;;;;3.60;2.55;;;;;;;;;;5002649;28;20435;-75
2021/12/01 02:14:58;;;;;;;4.35;2.92;;;;;;;;;;5009506;28;20018;-75
2021/12/01 02:17:24;;;;;;;4.70;3.15;;;;;;;;;;5016765;28;20056;-75
2021/12/01 02:19:53;;;;;;;3.78;3.13;;;;;;;;;;4985936;28;20554;-75
2021/12/01 02:22:18;;;;;;;5.10;3.47;;;;;;;;;;4994641;28;20027;-75
2021/12/01 02:24:46;;;;;;;5.55;3.40;;;;;;;;;;5009936;28;20038;-75
2021/12/01 02:27:12;;;;;;;4.38;3.20;;;;;;;;;;5010087;28;20541;-75
2021/12/01 02:29:37;;;;;;;3.45;2.80;;;;;;;;;;5008403;28;20029;-76
2021/12/01 02:32:03;;;;;;;3.05;2.50;;;;;;;;;;4990310;28;20060;-76
2021/12/01 02:34:31;;;;;;;5.65;2.83;;;;;;;;;;5005542;28;20034;-76
2021/12/01 02:36:57;;;;;;;1.90;1.80;;;;;;;;;;5005574;28;20084;-76
2021/12/01 02:39:23;;;;;;;3.15;2.42;;;;;;;;;;5009223;28;20038;-76
2021/12/01 02:41:53;;;;;;;1.73;1.63;;;;;;;;;;4996258;28;20172;-76
2021/12/01 02:44:19;;;;;;;2.17;1.95;;;;;;;;;;5004469;28;20399;-76
2021/12/01 02:46:44;;;;;;;1.30;1.20;;;;;;;;;;4995380;28;20581;-76
2021/12/01 02:49:10;;;;;;;1.88;1.20;;;;;;;;;;5016320;28;20389;-75
2021/12/01 02:51:37;;;;;;;1.52;1.17;;;;;;;;;;5005751;28;20023;-76
2021/12/01 02:54:03;;;;;;;0.80;0.80;;;;;;;;;;5015570;28;20030;-76
2021/12/01 02:56:29;;;;;;;0.55;0.55;;;;;;;;;;4997986;28;20038;-77
2021/12/01 02:58:56;;;;;;;0.68;0.65;;;;;;;;;;5007637;28;20129;-75
2021/12/01 03:01:22;;;;;;;0.77;0.68;;;;;;;;;;5014018;28;20026;-76
2021/12/01 03:03:48;;;;;;;0.80;0.65;;;;;;;;;;5013613;28;20517;-75
2021/12/01 03:06:14;;;;;;;0.45;0.45;;;;;;;;;;4983624;28;20041;-75
2021/12/01 03:08:42;;;;;;;0.88;0.75;;;;;;;;;;5013742;28;20112;-75
2021/12/01 03:11:08;;;;;;;0.70;0.57;;;;;;;;;;5014119;28;20022;-75
2021/12/01 03:13:33;;;;;;;0.50;0.50;;;;;;;;;;5013723;28;20026;-75
2021/12/01 03:15:58;;;;;;;0.60;0.40;;;;;;;;;;5004417;28;20025;-74
2021/12/01 03:18:24;;;;;;;0.60;0.50;;;;;;;;;;5011087;28;20037;-75
2021/12/01 03:20:50;;;;;;;0.30;0.30;;;;;;;;;;4992052;28;20501;-75
2021/12/01 03:23:15;;;;;;;0.40;0.40;;;;;;;;;;5013261;28;20406;-75
2021/12/01 03:25:41;;;;;;;0.30;0.30;;;;;;;;;;5011716;28;20041;-75
2021/12/01 03:28:07;;;;;;;0.30;0.30;;;;;;;;;;5015503;28;20041;-75
2021/12/01 03:30:33;;;;;;;0.28;0.28;;;;;;;;;;5014920;28;20029;-75
2021/12/01 03:33:00;;;;;;;0.80;0.40;;;;;;;;;;5014967;28;20010;-75
2021/12/01 03:35:25;;;;;;;0.25;0.20;;;;;;;;;;5012140;28;20077;-75
2021/12/01 03:37:50;;;;;;;1.02;0.30;;;;;;;;;;5011154;28;20030;-76
2021/12/01 03:40:15;;;;;;;0.20;0.20;;;;;;;;;;5006772;28;20462;-76
2021/12/01 03:42:43;;;;;;;0.70;0.20;;;;;;;;;;4994567;28;20033;-75
2021/12/01 03:45:10;;;;;;;0.20;0.20;;;;;;;;;;4997646;28;20033;-76
2021/12/01 03:47:35;;;;;;;0.50;0.10;;;;;;;;;;4996938;28;20034;-75
2021/12/01 03:50:01;;;;;;;0.65;0.20;;;;;;;;;;4978159;28;20463;-75
2021/12/01 03:52:26;;;;;;;0.20;0.20;;;;;;;;;;4994320;28;20467;-75
2021/12/01 03:54:52;;;;;;;0.95;0.20;;;;;;;;;;4995575;28;20050;-75
2021/12/01 03:57:18;;;;;;;0.30;0.30;;;;;;;;;;4999582;28;20033;-76
2021/12/01 03:59:43;;;;;;;1.65;0.30;;;;;;;;;;4988333;28;20034;-76
2021/12/01 04:02:09;;;;;;;0.35;0.28;;;;;;;;;;5011869;28;20037;-75
2021/12/01 04:04:34;;;;;;;0.35;0.30;;;;;;;;;;5013021;28;20037;-75
2021/12/01 04:07:00;;;;;;;1.40;0.90;;;;;;;;;;5012389;28;20026;-76
2021/12/01 04:09:26;;;;;;;0.60;0.57;;;;;;;;;;4995124;28;20030;-76
2021/12/01 04:11:51;;;;;;;1.65;1.23;;;;;;;;;;4995543;28;20236;-75
2021/12/01 04:14:17;;;;;;;1.20;1.10;;;;;;;;;;5013130;28;20514;-76
2021/12/01 04:16:42;;;;;;;1.85;1.45;;;;;;;;;;5012138;28;20029;-75
2021/12/01 04:19:07;;;;;;;3.10;1.40;;;;;;;;;;5005602;28;20029;-75
2021/12/01 04:21:33;;;;;;;0.95;0.93;;;;;;;;;;4996501;28;20022;-75
2021/12/01 04:23:58;;;;;;;3.67;0.90;;;;;;;;;;4996585;28;20061;-75
2021/12/01 04:26:26;;;;;;;1.60;1.30;;;;;;;;;;5012619;28;20030;-75
2021/12/01 04:28:53;;;;;;;2.95;1.02;;;;;;;;;;5001769;28;20030;-75
2021/12/01 04:31:18;;;;;;;1.40;0.90;;;;;;;;;;5012533;28;20119;-75
2021/12/01 04:33:43;;;;;;;1.00;0.73;;;;;;;;;;5013303;28;20109;-75
2021/12/01 04:36:09;;;;;;;1.15;1.00;;;;;;;;;;5012487;28;20088;-75
2021/12/01 04:38:35;;;;;;;0.90;0.70;;;;;;;;;;4995637;28;20395;-75
2021/12/01 04:41:01;;;;;;;0.88;0.60;;;;;;;;;;4984316;28;20172;-75
2021/12/01 04:43:27;;;;;;;0.60;0.60;;;;;;;;;;5005066;28;20104;-75
2021/12/01 04:45:58;;;;;;;0.70;0.60;;;;;;;;;;5010120;28;20137;-75
2021/12/01 04:48:23;;;;;;;0.50;0.40;;;;;;;;;;5003453;28;20068;-75
2021/12/01 04:50:49;;;;;;;0.55;0.30;;;;;;;;;;5007156;28;20034;-75
2021/12/01 04:53:14;;;;;;;1.42;0.30;;;;;;;;;;5009274;28;20029;-75
2021/12/01 04:55:39;;;;;;;0.88;0.40;;;;;;;;;;5013771;28;20061;-75
2021/12/01 04:58:05;;;;;;;1.27;0.47;;;;;;;;;;5006969;28;20108;-75
2021/12/01 05:00:34;;;;;;;1.80;0.50;;;;;;;;;;5002690;28;20079;-75
2021/12/01 05:02:59;;;;;;;0.60;0.60;;;;;;;;;;5001427;28;20494;-75
2021/12/01 05:05:24;;;;;;;3.85;0.30;;;;;;;;;;4996886;28;20038;-76
2021/12/01 05:07:51;;;;;;;0.70;0.50;;;;;;;;;;5002000;28;20033;-75
2021/12/01 05:10:17;;;;;;;0.90;0.70;;;;;;;;;;5011907;28;20030;-75
2021/12/01 05:12:42;;;;;;;1.33;0.30;;;;;;;;;;5010280;28;20021;-75
2021/12/01 05:15:07;;;;;;;0.30;0.22;;;;;;;;;;5013431;28;20474;-75
2021/12/01 05:17:33;;;;;;;0.38;0.20;;;;;;;;;;4990587;28;20104;-75
2021/12/01 05:19:59;;;;;;;0.47;0.30;;;;;;;;;;5006868;28;20134;-75
2021/12/01 05:22:25;;;;;;;0.47;0.30;;;;;;;;;;5010660;28;20021;-75
2021/12/01 05:24:51;;;;;;;1.15;0.38;;;;;;;;;;4993947;28;20033;-74
2021/12/01 05:27:16;;;;;;;0.20;0.20;;;;;;;;;;4984260;28;20085;-74
2021/12/01 05:29:41;;;;;;;0.35;0.30;;;;;;;;;;4989176;28;20026;-74
2021/12/01 05:32:07;;;;;;;0.52;0.20;;;;;;;;;;5009443;28;20018;-74
2021/12/01 05:34:32;;;;;;;0.30;0.10;;;;;;;;;;5013115;28;20013;-75
2021/12/01 05:37:00;;;;;;;0.20;0.20;;;;;;;;;;5006842;28;20072;-75
2021/12/01 05:39:26;;;;;;;0.85;0.30;;;;;;;;;;5011785;28;20026;-74
2021/12/01 05:41:52;;;;;;;0.20;0.20;;;;;;;;;;4995215;28;20029;-74
2021/12/01 05:44:17;;;;;;;0.40;0.20;;;;;;;;;;4994955;28;20030;-74
2021/12/01 05:46:43;;;;;;;0.10;0.10;;;;;;;;;;5009712;28;20108;-73
2021/12/01 05:49:08;;;;;;;0.00;0.00;;;;;;;;;;5006286;28;20372;-74
2021/12/01 05:51:33;;;;;;;0.20;0.10;;;;;;;;;;5011328;28;20410;-74
2021/12/01 05:53:58;;;;;;;0.30;0.10;;;;;;;;;;5012386;28;20041;-74
2021/12/01 05:56:24;;;;;;;0.10;0.10;;;;;;;;;;4993862;28;20025;-74
2021/12/01 05:58:49;;;;;;;0.47;0.20;;;;;;;;;;5007127;28;20029;-74
2021/12/01 06:01:14;;;;;;;0.20;0.10;;;;;;;;;;4989174;28;20023;-74
2021/12/01 06:03:40;;;;;;;0.10;0.10;;;;;;;;;;5005716;28;20045;-74
2021/12/01 06:06:05;;;;;;;0.52;0.30;;;;;;;;;;4994070;28;20053;-74
2021/12/01 06:08:31;;;;;;;1.15;0.25;;;;;;;;;;4992787;28;20025;-73
2021/12/01 06:10:56;;;;;;;0.30;0.30;;;;;;;;;;5012524;28;20026;-74
2021/12/01 06:13:21;;;;;;;0.40;0.40;;;;;;;;;;5011341;28;20041;-73
2021/12/01 06:15:51;;;;;;;0.47;0.38;;;;;;;;;;4992223;28;20109;-74
2021/12/01 06:18:16;;;;;;;0.30;0.30;;;;;;;;;;5012057;28;20018;-73
2021/12/01 06:20:42;;;;;;;1.00;0.50;;;;;;;;;;5011981;28;20497;-73
2021/12/01 06:23:07;;;;;;;1.40;1.30;;;;;;;;;;4994680;28;20141;-74
2021/12/01 06:25:33;;;;;;;1.50;1.40;;;;;;;;;;5005509;28;20022;-73
2021/12/01 06:27:58;;;;;;;2.78;1.27;;;;;;;;;;5002259;28;20029;-73
2021/12/01 06:30:25;;;;;;;1.63;1.10;;;;;;;;;;4992836;28;20061;-73
2021/12/01 06:32:51;;;;;;;0.60;0.60;;;;;;;;;;4995490;28;20091;-73
2021/12/01 06:35:17;;;;;;;0.63;0.60;;;;;;;;;;5012191;28;20073;-73
2021/12/01 06:37:42;;;;;;;0.60;0.60;;;;;;;;;;5010426;28;20079;-73
2021/12/01 06:40:08;;;;;;;0.70;0.70;;;;;;;;;;5010204;28;20462;-73
2021/12/01 06:42:35;;;;;;;0.85;0.43;;;;;;;;;;5011023;28;20124;-74
2021/12/01 06:45:01;;;;;;;0.43;0.32;;;;;;;;;;5012100;28;20381;-73
2021/12/01 06:47:26;;;;;;;0.57;0.50;;;;;;;;;;5008256;28;20105;-73
2021/12/01 06:49:51;;;;;;;0.40;0.30;;;;;;;;;;5010629;28;20025;-74
2021/12/01 06:52:16;;;;;;;0.50;0.50;;;;;;;;;;4994447;28;20390;-74
2021/12/01 06:54:42;;;;;;;0.35;0.28;;;;;;;;;;4994354;28;20026;-74
2021/12/01 06:57:07;;;;;;;1.35;0.40;;;;;;;;;;5007628;28;20026;-73
2021/12/01 06:59:33;;;;;;;0.30;0.30;;;;;;;;;;5006818;28;20033;-73
2021/12/01 07:01:58;;;;;;;0.55;0.20;;;;;;;;;;5010175;28;20034;-74
2021/12/01 07:04:23;;;;;;;0.60;0.30;;;;;;;;;;4990058;28;20018;-73
2021/12/01 07:06:48;;;;;;;1.70;0.30;;;;;;;;;;4994754;28;20537;-74
2021/12/01 07:09:24;;;;;;;0.60;0.47;;;;;;;;;;4984329;28;20026;-74
2021/12/01 07:11:50;;;;;;;0.57;0.40;;;;;;;;;;4991417;28;20027;-74
2021/12/01 07:14:15;;;;;;;0.30;0.30;;;;;;;;;;4993169;28;20072;-74
2021/12/01 07:16:41;;;;;;;0.38;0.30;;;;;;;;;;5010186;28;20022;-74
2021/12/01 07:19:06;;;;;;;0.55;0.32;;;;;;;;;;5008638;28;20105;-74
2021/12/01 07:21:32;;;;;;;0.20;0.20;;;;;;;;;;5001009;28;20032;-74
2021/12/01 07:23:57;;;;;;;1.10;0.55;;;;;;;;;;4995689;28;20260;-74
2021/12/01 07:26:22;;;;;;;0.40;0.40;;;;;;;;;;5008652;28;20372;-74
2021/12/01 07:28:48;;;;;;;1.83;0.50;;;;;;;;;;5006039;28;20080;-74
2021/12/01 07:31:13;;;;;;;0.60;0.60;;;;;;;;;;4991354;28;20022;-74
2021/12/01 07:33:39;;;;;;;1.65;0.47;;;;;;;;;;5013635;28;20056;-74
2021/12/01 07:36:05;;;;;;;0.98;0.90;;;;;;;;;;5009524;28;20113;-73
2021/12/01 07:38:30;;;;;;;0.88;0.75;;;;;;;;;;5013831;28;20478;-74
2021/12/01 07:40:55;;;;;;;0.40;0.40;;;;;;;;;;5012886;28;20104;-74
2021/12/01 07:43:21;;;;;;;0.65;0.60;;;;;;;;;;5013777;28;20412;-74
2021/12/01 07:45:46;;;;;;;0.77;0.70;;;;;;;;;;5013143;28;20032;-74
2021/12/01 07:48:11;;;;;;;0.50;0.40;;;;;;;;;;5014244;28;20494;-73
2021/12/01 07:50:37;;;;;;;1.08;0.93;;;;;;;;;;5013153;28;20613;-73
2021/12/01 07:53:02;;;;;;;1.10;0.85;;;;;;;;;;5014540;28;20017;-73
2021/12/01 07:55:28;;;;;;;1.38;0.65;;;;;;;;;;5011561;28;20018;-73
2021/12/01 07:57:53;;;;;;;3.08;2.60;;;;;;;;;;5009066;28;20064;-74
2021/12/01 08:00:19;;;;;;;4.53;3.33;;;;;;;;;;5011821;28;20089;-73
2021/12/01 08:02:45;;;;;;;5.40;4.90;;;;;;;;;;4996398;28;20018;-76
2021/12/01 08:05:11;;;;;;;8.85;6.25;;;;;;;;;;5014030;28;20026;-75
2021/12/01 08:07:38;;;;;;;5.65;4.63;;;;;;;;;;5012155;28;20393;-76
2021/12/01 08:10:04;;;;;;;8.55;6.03;;;;;;;;;;5013741;28;20022;-76
2021/12/01 08:12:30;;;;;;;9.07;5.88;;;;;;;;;;5014216;28;20022;-76
2021/12/01 08:14:55;;;;;;;5.55;4.90;;;;;;;;;;5010590;28;20025;-76
2021/12/01 08:17:20;;;;;;;4.55;4.15;;;;;;;;;;5006194;28;20081;-75
2021/12/01 08:19:46;;;;;;;3.88;3.58;;;;;;;;;;4995063;28;20073;-77
2021/12/01 08:22:11;;;;;;;4.50;3.33;;;;;;;;;;4995965;28;20058;-76
2021/12/01 08:24:37;;;;;;;3.20;2.90;;;;;;;;;;5012019;28;20478;-77
2021/12/01 08:27:02;;;;;;;4.05;3.63;;;;;;;;;;5011857;28;20543;-75
2021/12/01 08:29:27;;;;;;;3.00;2.78;;;;;;;;;;5009184;28;20070;-76
2021/12/01 08:31:53;;;;;;;2.63;2.42;;;;;;;;;;5015138;28;20064;-76
2021/12/01 08:34:18;;;;;;;1.40;1.30;;;;;;;;;;4996044;28;20505;-77
2021/12/01 08:36:46;;;;;;;1.20;1.10;;;;;;;;;;5012305;28;20021;-76
2021/12/01 08:39:11;;;;;;;1.10;0.88;;;;;;;;;;5012714;28;20433;-76
2021/12/01 08:41:37;;;;;;;2.15;0.93;;;;;;;;;;4996290;28;20034;-77
2021/12/01 08:44:02;;;;;;;0.90;0.90;;;;;;;;;;4995832;28;20033;-77
2021/12/01 08:46:28;;;;;;;0.70;0.70;;;;;;;;;;5011778;28;20033;-76
2021/12/01 08:48:53;;;;;;;0.80;0.75;;;;;;;;;;5012023;28;20025;-76
2021/12/01 08:51:19;;;;;;;0.93;0.75;;;;;;;;;;4996195;28;20077;-77
2021/12/01 08:53:44;;;;;;;1.35;0.77;;;;;;;;;;5012526;28;20029;-77
2021/12/01 08:56:10;;;;;;;1.42;0.40;;;;;;;;;;5011564;28;20125;-75
2021/12/01 08:58:36;;;;;;;0.52;0.52;;;;;;;;;;5008167;28;20029;-75
2021/12/01 09:01:02;;;;;;;0.65;0.30;;;;;;;;;;4995822;28;20038;-76
2021/12/01 09:03:27;;;;;;;0.45;0.28;;;;;;;;;;5010098;28;20038;-75
2021/12/01 09:05:53;;;;;;;0.38;0.20;;;;;;;;;;5013390;28;20026;-75
2021/12/01 09:08:20;;;;;;;0.73;0.20;;;;;;;;;;5013170;28;20034;-76
2021/12/01 09:10:46;;;;;;;0.40;0.25;;;;;;;;;;5012410;28;20026;-76
2021/12/01 09:13:11;;;;;;;0.30;0.20;;;;;;;;;;5011826;28;20044;-76
2021/12/01 09:15:38;;;;;;;0.10;0.10;;;;;;;;;;5011690;28;20026;-76
2021/12/01 09:18:04;;;;;;;0.75;0.20;;;;;;;;;;5012539;28;20026;-75
2021/12/01 09:20:29;;;;;;;0.65;0.10;;;;;;;;;;5012120;28;20034;-76
2021/12/01 09:22:55;;;;;;;0.28;0.25;;;;;;;;;;5013080;28;20053;-76
2021/12/01 09:25:20;;;;;;;0.10;0.10;;;;;;;;;;5012986;28;20209;-76
2021/12/01 09:27:46;;;;;;;0.05;0.00;;;;;;;;;;5008657;28;20517;-76
2021/12/01 09:30:12;;;;;;;0.10;0.00;;;;;;;;;;5008040;28;20034;-76
2021/12/01 09:32:38;;;;;;;0.15;0.00;;;;;;;;;;5027490;28;20050;-76
2021/12/01 09:35:04;;;;;;;0.20;0.10;;;;;;;;;;5011681;28;20056;-76
2021/12/01 09:37:29;;;;;;;0.00;0.00;;;;;;;;;;5003413;28;20026;-76
2021/12/01 09:39:54;;;;;;;0.10;0.08;;;;;;;;;;4991960;28;20133;-76
2021/12/01 09:42:21;;;;;;;0.10;0.00;;;;;;;;;;4993411;28;20033;-77
2021/12/01 09:44:47;;;;;;;0.10;0.03;;;;;;;;;;5011688;28;20032;-78
2021/12/01 09:47:15;;;;;;;0.88;0.03;;;;;;;;;;5010911;28;20134;-78
2021/12/01 09:49:41;;;;;;;0.47;0.10;;;;;;;;;;5011607;28;20057;-79
2021/12/01 09:52:08;;;;;;;0.15;0.15;;;;;;;;;;5012521;28;20371;-76
2021/12/01 09:54:34;;;;;;;0.20;0.10;;;;;;;;;;4994982;28;20034;-76
2021/12/01 09:56:59;;;;;;;0.20;0.10;;;;;;;;;;5010056;28;20033;-75
2021/12/01 09:59:24;;;;;;;0.10;0.00;;;;;;;;;;5005498;28;20398;-75
2021/12/01 10:01:50;;;;;;;0.10;0.10;;;;;;;;;;5010922;28;20766;-75
2021/12/01 10:04:15;;;;;;;0.30;0.10;;;;;;;;;;5010322;28;20034;-75
2021/12/01 10:06:40;;;;;;;0.10;0.10;;;;;;;;;;5011351;28;20025;-75
2021/12/01 10:09:07;;;;;;;0.82;0.10;;;;;;;;;;5011144;28;20033;-75
2021/12/01 10:11:37;;;;;;;0.20;0.20;;;;;;;;;;5011341;28;20061;-75
2021/12/01 10:14:04;;;;;;;0.40;0.15;;;;;;;;;;5011435;28;20169;-74
2021/12/01 10:16:31;;;;;;;0.40;0.10;;;;;;;;;;5009759;28;20495;-80
2021/12/01 10:18:58;;;;;;;0.20;0.20;;;;;;;;;;5011752;28;20068;-80
2021/12/01 10:21:31;;;;;;;0.10;0.10;;;;;;;;;;5011313;28;20025;-80
2021/12/01 10:24:01;;;;;;;0.20;0.13;;;;;;;;;;5012282;28;20049;-81
2021/12/01 10:26:28;;;;;;;0.40;0.10;;;;;;;;;;5009540;28;20026;-80
2021/12/01 10:28:53;;;;;;;0.30;0.17;;;;;;;;;;5000590;28;20029;-80
2021/12/01 10:31:31;;;;;;;0.20;0.10;;;;;;;;;;5006479;28;20018;-80
2021/12/01 10:34:12;;;;;;;0.28;0.10;;;;;;;;;;4996518;28;20018;-79
2021/12/01 10:36:37;;;;;;;0.43;0.13;;;;;;;;;;5009540;28;20025;-80
2021/12/01 10:39:04;;;;;;;0.25;0.10;;;;;;;;;;4994375;28;20030;-81
2021/12/01 10:41:36;;;;;;;0.70;0.10;;;;;;;;;;5011788;28;20024;-82
2021/12/01 10:44:12;;;;;;;0.30;0.10;;;;;;;;;;4982890;28;20390;-78
2021/12/01 10:46:48;;;;;;;0.55;0.20;;;;;;;;;;5010497;28;20022;-80
2021/12/01 10:49:13;;;;;;;0.30;0.10;;;;;;;;;;4993588;28;20034;-81
2021/12/01 10:51:39;;;;;;;0.68;0.10;;;;;;;;;;4983696;28;20053;-80
2021/12/01 10:54:12;;;;;;;0.30;0.10;;;;;;;;;;5010833;28;20018;-82
2021/12/01 10:56:38;;;;;;;0.63;0.10;;;;;;;;;;5004725;28;20109;-84
2021/12/01 10:59:14;;;;;;;0.20;0.10;;;;;;;;;;4986708;28;20026;-79
2021/12/01 11:01:39;;;;;;;0.80;0.10;;;;;;;;;;4997541;28;20028;-79
2021/12/01 11:04:05;;;;;;;0.40;0.10;;;;;;;;;;5006654;28;20108;-83
2021/12/01 11:06:35;;;;;;;0.70;0.20;;;;;;;;;;5000997;28;20471;-82
2021/12/01 11:09:01;;;;;;;0.10;0.03;;;;;;;;;;4996386;28;20124;-82
2021/12/01 11:11:42;;;;;;;0.00;0.00;;;;;;;;;;5013180;28;20108;-82
2021/12/01 11:14:12;;;;;;;0.20;0.10;;;;;;;;;;5008111;28;20459;-83
2021/12/01 11:16:39;;;;;;;0.77;0.10;;;;;;;;;;5012910;28;20022;-83
2021/12/01 11:19:04;;;;;;;0.30;0.10;;;;;;;;;;4997710;28;20069;-83
2021/12/01 11:21:30;;;;;;;0.10;0.10;;;;;;;;;;4998374;28;20446;-86
2021/12/01 11:24:00;;;;;;;0.30;0.10;;;;;;;;;;4994610;28;20068;-82
2021/12/01 11:26:26;;;;;;;0.50;0.17;;;;;;;;;;5009765;28;20344;-83
2021/12/01 11:28:56;;;;;;;0.10;0.00;;;;;;;;;;4991093;28;20026;-75
2021/12/01 11:31:26;;;;;;;0.30;0.00;;;;;;;;;;5004526;28;20386;-75
2021/12/01 11:33:55;;;;;;;1.05;0.10;;;;;;;;;;5013454;28;20052;-75
2021/12/01 11:36:25;;;;;;;0.68;0.10;;;;;;;;;;5013607;28;20133;-75
2021/12/01 11:38:52;;;;;;;0.20;0.10;;;;;;;;;;5015100;28;20014;-74
2021/12/01 11:41:18;;;;;;;0.30;0.10;;;;;;;;;;5008614;28;20018;-75
2021/12/01 11:43:44;;;;;;;0.17;0.10;;;;;;;;;;4994141;28;20029;-75
2021/12/01 11:46:11;;;;;;;0.10;0.10;;;;;;;;;;5004267;28;20024;-75
2021/12/01 11:48:39;;;;;;;1.45;0.10;;;;;;;;;;5007755;28;20036;-75
2021/12/01 11:51:37;;;;;;;0.30;0.00;;;;;;;;;;5009503;28;20018;-75
2021/12/01 11:54:11;;;;;;;0.98;0.00;;;;;;;;;;4990338;28;20029;-75
2021/12/01 11:56:38;;;;;;;0.20;0.00;;;;;;;;;;5011360;28;20414;-75
2021/12/01 11:59:03;;;;;;;0.17;0.08;;;;;;;;;;5002355;28;20482;-75
2021/12/01 12:01:36;;;;;;;0.52;0.00;;;;;;;;;;5010140;28;20034;-75
2021/12/01 12:04:01;;;;;;;0.40;0.10;;;;;;;;;;5005500;28;20163;-74
2021/12/01 12:06:26;;;;;;;1.23;0.10;;;;;;;;;;5010970;28;20112;-75
2021/12/01 12:08:57;;;;;;;0.20;0.00;;;;;;;;;;5008205;28;20409;-75
2021/12/01 12:11:36;;;;;;;0.32;0.10;;;;;;;;;;5004085;28;20056;-75
2021/12/01 12:14:02;;;;;;;0.10;0.00;;;;;;;;;;5006258;28;20025;-75
2021/12/01 12:16:27;;;;;;;0.32;0.10;;;;;;;;;;5006440;28;20030;-74
2021/12/01 12:18:53;;;;;;;1.70;0.00;;;;;;;;;;5005467;28;20029;-74
2021/12/01 12:21:24;;;;;;;0.10;0.00;;;;;;;;;;5012105;28;20149;-75
2021/12/01 12:23:49;;;;;;;0.55;0.10;;;;;;;;;;5014481;28;20045;-75
2021/12/01 12:26:31;;;;;;;0.10;0.00;;;;;;;;;;5003406;28;20044;-75
2021/12/01 12:29:09;;;;;;;0.15;0.00;;;;;;;;;;5004529;28;20490;-74
2021/12/01 12:31:35;;;;;;;0.00;0.00;;;;;;;;;;5005713;28;20018;-74
2021/12/01 12:34:03;;;;;;;0.00;0.00;;;;;;;;;;5003446;28;20025;-75
2021/12/01 12:36:39;;;;;;;0.00;0.00;;;;;;;;;;5005802;28;20060;-75
2021/12/01 12:39:06;;;;;;;0.22;0.03;;;;;;;;;;5006709;28;20442;-75
2021/12/01 12:41:31;;;;;;;0.10;0.00;;;;;;;;;;5003408;28;20101;-74
2021/12/01 12:44:17;;;;;;;0.10;0.00;;;;;;;;;;5004648;28;20524;-75
2021/12/01 12:46:59;;;;;;;0.20;0.10;;;;;;;;;;5005819;28;20023;-75
2021/12/01 12:49:36;;;;;;;0.30;0.00;;;;;;;;;;5004168;28;20022;-75
2021/12/01 12:52:20;;;;;;;0.55;0.00;;;;;;;;;;5016346;28;20030;-75
2021/12/01 12:54:46;;;;;;;0.10;0.00;;;;;;;;;;5011418;28;20493;-74
2021/12/01 12:57:13;;;;;;;0.10;0.00;;;;;;;;;;5008226;28;20022;-75
2021/12/01 12:59:39;;;;;;;0.00;0.00;;;;;;;;;;5010022;28;20108;-74
2021/12/01 13:02:07;;;;;;;0.00;0.00;;;;;;;;;;5011056;28;20132;-74
2021/12/01 13:05:05;;;;;;;1.00;0.00;;;;;;;;;;5014317;28;20026;-75
2021/12/01 13:07:38;;;;;;;0.17;0.00;;;;;;;;;;5009520;28;21424;-74
2021/12/01 13:10:14;;;;;;;0.40;0.00;;;;;;;;;;5009881;28;20478;-75
2021/12/01 13:12:42;;;;;;;0.10;0.00;;;;;;;;;;5013478;28;20025;-76
2021/12/01 13:15:07;;;;;;;0.10;0.00;;;;;;;;;;5012522;28;20377;-75
2021/12/01 13:17:33;;;;;;;0.08;0.00;;;;;;;;;;5005270;28;20013;-74
2021/12/01 13:20:00;;;;;;;0.32;0.00;;;;;;;;;;5010731;28;20573;-75
2021/12/01 13:22:25;;;;;;;0.43;0.00;;;;;;;;;;5011976;28;20025;-75
2021/12/01 13:24:51;;;;;;;0.30;0.20;;;;;;;;;;5010337;28;20033;-73
2021/12/01 13:27:16;;;;;;;0.38;0.10;;;;;;;;;;5008177;28;20021;-77
2021/12/01 13:29:41;;;;;;;0.10;0.00;;;;;;;;;;4988255;28;20117;-76
2021/12/01 13:32:06;;;;;;;0.40;0.00;;;;;;;;;;5022328;28;20033;-76
2021/12/01 13:34:34;;;;;;;0.00;0.00;;;;;;;;;;5010433;28;20502;-76
2021/12/01 13:37:05;;;;;;;0.35;0.00;;;;;;;;;;5012426;28;20057;-76
2021/12/01 13:39:35;;;;;;;0.30;0.00;;;;;;;;;;5012612;28;20021;-75
2021/12/01 13:42:02;;;;;;;0.30;0.00;;;;;;;;;;5010646;28;20021;-76
2021/12/01 13:44:31;;;;;;;0.00;0.00;;;;;;;;;;5011787;28;20022;-76
2021/12/01 13:47:04;;;;;;;0.00;0.00;;;;;;;;;;5008748;28;20387;-74
2021/12/01 13:49:39;;;;;;;0.00;0.00;;;;;;;;;;5007660;28;20054;-75
2021/12/01 13:52:04;;;;;;;0.22;0.10;;;;;;;;;;5009064;28;20022;-74
2021/12/01 13:54:30;;;;;;;0.00;0.00;;;;;;;;;;5011534;28;20109;-75
2021/12/01 13:57:00;;;;;;;0.13;0.00;;;;;;;;;;4994214;28;20022;-74
2021/12/01 13:59:37;;;;;;;0.35;0.00;;;;;;;;;;5006978;28;20032;-75
2021/12/01 14:02:02;;;;;;;0.10;0.00;;;;;;;;;;5010996;28;20079;-75
2021/12/01 14:04:27;;;;;;;0.05;0.00;;;;;;;;;;5008764;28;20117;-76
2021/12/01 14:06:53;;;;;;;0.05;0.00;;;;;;;;;;5011688;28;20026;-76
2021/12/01 14:09:22;;;;;;;0.20;0.03;;;;;;;;;;5010697;28;20026;-76
2021/12/01 14:11:51;;;;;;;0.20;0.00;;;;;;;;;;5006098;28;20022;-76
2021/12/01 14:14:18;;;;;;;0.20;0.00;;;;;;;;;;4990901;28;20084;-77
2021/12/01 14:16:45;;;;;;;0.65;0.00;;;;;;;;;;5003735;28;20022;-74
2021/12/01 14:19:10;;;;;;;0.10;0.00;;;;;;;;;;4995146;28;20529;-74
2021/12/01 14:21:36;;;;;;;0.43;0.00;;;;;;;;;;5010107;28;20026;-74
2021/12/01 14:24:08;;;;;;;0.20;0.00;;;;;;;;;;5009897;28;20038;-74
2021/12/01 14:26:35;;;;;;;0.10;0.00;;;;;;;;;;5008291;28;20088;-74
2021/12/01 14:29:03;;;;;;;2.47;0.00;;;;;;;;;;5012456;28;20063;-74
2021/12/01 14:31:28;;;;;;;0.15;0.00;;;;;;;;;;5004545;28;20025;-74
2021/12/01 14:34:04;;;;;;;0.00;0.00;;;;;;;;;;5008451;28;20026;-73
2021/12/01 14:36:29;;;;;;;0.20;0.00;;;;;;;;;;5010945;28;20025;-74
2021/12/01 14:38:55;;;;;;;0.20;0.00;;;;;;;;;;5031784;28;20377;-73
2021/12/01 14:41:21;;;;;;;0.70;0.00;;;;;;;;;;5014188;28;20044;-74
2021/12/01 14:43:55;;;;;;;0.10;0.00;;;;;;;;;;5007369;28;20022;-74
2021/12/01 14:46:20;;;;;;;0.17;0.00;;;;;;;;;;5004846;28;20018;-74